createdAt,value
2018-08-20T00:00:40.022Z,79.88
2018-08-20T00:01:40.175Z,79.72
2018-08-20T00:02:40.330Z,79.44
2018-08-20T00:03:40.487Z,78.96
2018-08-20T00:04:40.657Z,79.59
2018-08-20T00:05:40.810Z,79.53
2018-08-20T00:06:40.967Z,79.24
2018-08-20T00:07:41.123Z,79.44
2018-08-20T00:08:41.277Z,78.86
2018-08-20T00:09:41.435Z,79.44
2018-08-20T00:10:41.590Z,79.24
2018-08-20T00:11:41.739Z,79.44
2018-08-20T00:12:41.894Z,78.77
2018-08-20T00:13:42.052Z,79.34
2018-08-20T00:14:42.204Z,80.16
2018-08-20T00:15:42.358Z,81.02
2018-08-20T00:16:42.512Z,80.55
2018-08-20T00:17:42.667Z,80.35
2018-08-20T00:18:42.820Z,80.20
2018-08-20T00:19:42.978Z,81.02
2018-08-20T00:20:43.128Z,81.41
2018-08-20T00:21:43.281Z,80.74
2018-08-20T00:22:43.435Z,81.31
2018-08-20T00:23:43.589Z,81.70
2018-08-20T00:24:43.742Z,81.98
2018-08-20T00:25:43.895Z,81.51
2018-08-20T00:26:44.049Z,82.18
2018-08-20T00:27:44.207Z,82.08
2018-08-20T00:28:44.359Z,81.89
2018-08-20T00:29:44.514Z,81.60
2018-08-20T00:30:44.665Z,82.18
2018-08-20T00:31:44.821Z,81.98
2018-08-20T00:32:44.973Z,82.27
2018-08-20T00:33:45.126Z,82.27
2018-08-20T00:34:45.281Z,82.08
2018-08-20T00:35:45.434Z,82.75
2018-08-20T00:36:45.588Z,82.52
2018-08-20T00:37:45.742Z,82.90
2018-08-20T00:38:45.897Z,83.48
2018-08-20T00:39:46.053Z,83.19
2018-08-20T00:40:46.206Z,82.52
2018-08-20T00:41:46.364Z,82.46
2018-08-20T00:42:46.513Z,82.32
2018-08-20T00:43:46.668Z,82.71
2018-08-20T00:44:46.821Z,82.52
2018-08-20T00:45:46.984Z,82.42
2018-08-20T00:46:47.135Z,82.14
2018-08-20T00:47:47.288Z,81.70
2018-08-20T00:48:47.444Z,82.18
2018-08-20T00:49:47.597Z,82.18
2018-08-20T00:50:47.752Z,82.27
2018-08-20T00:51:47.905Z,82.65
2018-08-20T00:52:48.060Z,82.85
2018-08-20T00:53:48.215Z,82.42
2018-08-20T00:54:48.384Z,83.09
2018-08-20T00:55:48.524Z,83.19
2018-08-20T00:56:48.677Z,82.81
2018-08-20T00:57:48.834Z,82.90
2018-08-20T00:58:48.988Z,83.19
2018-08-20T00:59:49.140Z,83.29
2018-08-20T01:00:49.295Z,83.48
2018-08-20T01:01:49.447Z,83.19
2018-08-20T01:02:49.602Z,83.76
2018-08-20T01:03:49.754Z,83.48
2018-08-20T01:04:49.907Z,83.67
2018-08-20T01:05:50.064Z,83.67
2018-08-20T01:06:50.216Z,83.29
2018-08-20T01:07:50.378Z,82.81
2018-08-20T01:08:50.526Z,83.29
2018-08-20T01:09:50.680Z,83.72
2018-08-20T01:10:50.835Z,84.05
2018-08-20T01:11:50.990Z,83.58
2018-08-20T01:12:51.143Z,82.90
2018-08-20T01:13:51.296Z,82.52
2018-08-20T01:14:51.450Z,82.90
2018-08-20T01:15:51.604Z,83.29
2018-08-20T01:16:51.759Z,83.00
2018-08-20T01:17:51.913Z,83.48
2018-08-20T01:18:52.074Z,83.82
2018-08-20T01:19:52.222Z,83.95
2018-08-20T01:20:52.377Z,83.86
2018-08-20T01:21:52.530Z,84.49
2018-08-20T01:22:52.688Z,85.39
2018-08-20T01:23:52.840Z,85.25
2018-08-20T01:24:52.991Z,85.35
2018-08-20T01:25:53.146Z,85.06
2018-08-20T01:26:53.301Z,85.06
2018-08-20T01:27:53.452Z,85.74
2018-08-20T01:28:53.605Z,85.74
2018-08-20T01:29:53.758Z,85.93
2018-08-20T01:30:53.913Z,85.06
2018-08-20T01:31:54.068Z,85.06
2018-08-20T01:32:54.223Z,85.74
2018-08-20T01:33:54.375Z,86.21
2018-08-20T01:34:54.526Z,86.69
2018-08-20T01:35:54.680Z,86.88
2018-08-20T01:36:54.837Z,86.12
2018-08-20T01:37:54.986Z,86.12
2018-08-20T01:38:55.140Z,86.98
2018-08-20T01:39:55.295Z,87.23
2018-08-20T01:40:55.448Z,87.55
2018-08-20T01:41:55.605Z,86.88
2018-08-20T01:42:55.760Z,86.50
2018-08-20T01:43:55.916Z,86.94
2018-08-20T01:44:56.067Z,86.98
2018-08-20T01:45:56.225Z,86.65
2018-08-20T01:46:56.377Z,86.88
2018-08-20T01:47:56.528Z,86.98
2018-08-20T01:48:56.681Z,86.60
2018-08-20T01:49:56.839Z,86.31
2018-08-20T01:50:56.989Z,86.41
2018-08-20T01:51:57.142Z,86.21
2018-08-20T01:52:57.294Z,86.50
2018-08-20T01:53:57.449Z,85.74
2018-08-20T01:54:57.605Z,85.93
2018-08-20T01:55:57.755Z,86.21
2018-08-20T01:56:57.909Z,85.45
2018-08-20T01:57:58.063Z,85.64
2018-08-20T01:58:58.217Z,85.25
2018-08-20T01:59:58.372Z,85.54
2018-08-20T02:00:58.526Z,85.16
2018-08-20T02:01:58.678Z,85.16
2018-08-20T02:02:58.832Z,85.54
2018-08-20T02:03:58.987Z,84.97
2018-08-20T02:04:59.141Z,85.83
2018-08-20T02:05:59.302Z,86.02
2018-08-20T02:06:59.449Z,86.31
2018-08-20T02:07:59.603Z,86.02
2018-08-20T02:08:59.756Z,86.41
2018-08-20T02:09:59.910Z,86.31
2018-08-20T02:11:00.064Z,86.02
2018-08-20T02:12:00.216Z,86.02
2018-08-20T02:13:00.370Z,86.02
2018-08-20T02:14:00.527Z,85.54
2018-08-20T02:15:00.676Z,86.02
2018-08-20T02:16:00.829Z,86.21
2018-08-20T02:17:00.983Z,86.31
2018-08-20T02:18:01.138Z,86.69
2018-08-20T02:19:01.293Z,85.83
2018-08-20T02:20:01.448Z,86.69
2018-08-20T02:21:01.601Z,86.65
2018-08-20T02:22:01.753Z,86.69
2018-08-20T02:23:01.910Z,87.51
2018-08-20T02:24:02.062Z,87.51
2018-08-20T02:25:02.215Z,87.70
2018-08-20T02:26:02.370Z,87.90
2018-08-20T02:27:02.523Z,87.80
2018-08-20T02:28:02.673Z,87.41
2018-08-20T02:29:02.826Z,87.32
2018-08-20T02:30:02.982Z,87.13
2018-08-20T02:31:03.134Z,87.80
2018-08-20T02:32:03.287Z,87.99
2018-08-20T02:33:03.439Z,88.28
2018-08-20T02:34:03.596Z,88.66
2018-08-20T02:35:03.748Z,89.04
2018-08-20T02:36:03.903Z,88.76
2018-08-20T02:37:04.056Z,89.00
2018-08-20T02:38:04.212Z,89.95
2018-08-20T02:39:04.365Z,89.52
2018-08-20T02:40:04.520Z,89.38
2018-08-20T02:41:04.679Z,89.86
2018-08-20T02:42:04.827Z,89.76
2018-08-20T02:43:04.981Z,89.58
2018-08-20T02:44:05.132Z,89.58
2018-08-20T02:45:05.289Z,89.48
2018-08-20T02:46:05.447Z,89.58
2018-08-20T02:47:05.599Z,90.24
2018-08-20T02:48:05.749Z,90.15
2018-08-20T02:49:05.903Z,89.95
2018-08-20T02:50:06.057Z,89.76
2018-08-20T02:51:06.210Z,90.24
2018-08-20T02:52:06.364Z,90.05
2018-08-20T02:53:06.518Z,90.24
2018-08-20T02:54:06.672Z,89.76
2018-08-20T02:55:06.827Z,89.38
2018-08-20T02:56:06.981Z,89.58
2018-08-20T02:57:07.133Z,89.29
2018-08-20T02:58:07.286Z,89.72
2018-08-20T02:59:07.442Z,89.67
2018-08-20T03:00:07.595Z,90.05
2018-08-20T03:01:07.752Z,89.38
2018-08-20T03:02:07.983Z,89.86
2018-08-20T03:03:08.075Z,89.58
2018-08-20T03:04:08.231Z,89.48
2018-08-20T03:05:08.385Z,90.15
2018-08-20T03:06:08.538Z,90.24
2018-08-20T03:07:08.692Z,90.05
2018-08-20T03:08:08.846Z,90.82
2018-08-20T03:09:09.001Z,90.63
2018-08-20T03:10:09.152Z,91.11
2018-08-20T03:11:09.304Z,90.91
2018-08-20T03:12:09.458Z,91.73
2018-08-20T03:13:09.612Z,91.83
2018-08-20T03:14:09.770Z,92.40
2018-08-20T03:15:09.914Z,92.59
2018-08-20T03:16:10.074Z,93.16
2018-08-20T03:17:10.224Z,92.78
2018-08-20T03:18:10.375Z,92.78
2018-08-20T03:19:10.530Z,92.69
2018-08-20T03:20:10.685Z,92.78
2018-08-20T03:21:10.837Z,92.78
2018-08-20T03:22:10.994Z,92.97
2018-08-20T03:23:11.144Z,92.63
2018-08-20T03:24:11.297Z,91.87
2018-08-20T03:25:11.450Z,91.87
2018-08-20T03:26:11.603Z,91.39
2018-08-20T03:27:11.755Z,91.87
2018-08-20T03:28:11.909Z,91.63
2018-08-20T03:29:12.064Z,92.49
2018-08-20T03:30:12.216Z,92.30
2018-08-20T03:31:12.372Z,92.59
2018-08-20T03:32:12.523Z,92.40
2018-08-20T03:33:12.676Z,93.07
2018-08-20T03:34:12.828Z,92.40
2018-08-20T03:35:12.983Z,92.49
2018-08-20T03:36:13.136Z,92.54
2018-08-20T03:37:13.286Z,92.59
2018-08-20T03:38:13.438Z,92.63
2018-08-20T03:39:13.591Z,91.83
2018-08-20T03:40:13.742Z,92.49
2018-08-20T03:41:13.895Z,92.40
2018-08-20T03:42:14.049Z,92.49
2018-08-20T03:43:14.203Z,92.59
2018-08-20T03:44:14.356Z,93.07
2018-08-20T03:45:14.511Z,93.55
2018-08-20T03:46:14.663Z,93.84
2018-08-20T03:47:14.818Z,93.55
2018-08-20T03:48:14.970Z,93.45
2018-08-20T03:49:15.123Z,93.55
2018-08-20T03:50:15.275Z,93.55
2018-08-20T03:51:15.427Z,92.97
2018-08-20T03:52:15.589Z,93.74
2018-08-20T03:53:15.733Z,94.21
2018-08-20T03:54:15.886Z,94.50
2018-08-20T03:55:16.037Z,94.60
2018-08-20T03:56:16.194Z,94.31
2018-08-20T03:57:16.349Z,93.84
2018-08-20T03:58:16.501Z,93.64
2018-08-20T03:59:16.655Z,93.55
2018-08-20T04:00:16.808Z,94.21
2018-08-20T04:01:16.962Z,94.79
2018-08-20T04:02:17.114Z,94.41
2018-08-20T04:03:17.275Z,94.60
2018-08-20T04:04:17.419Z,94.89
2018-08-20T04:05:17.575Z,94.41
2018-08-20T04:06:17.725Z,94.70
2018-08-20T04:07:17.880Z,95.17
2018-08-20T04:08:18.032Z,95.75
2018-08-20T04:09:18.187Z,95.17
2018-08-20T04:10:18.341Z,95.84
2018-08-20T04:11:18.493Z,95.65
2018-08-20T04:12:18.646Z,95.94
2018-08-20T04:13:18.800Z,95.65
2018-08-20T04:14:18.953Z,95.65
2018-08-20T04:15:19.109Z,95.17
2018-08-20T04:16:19.258Z,95.07
2018-08-20T04:17:19.411Z,94.41
2018-08-20T04:18:19.565Z,94.50
2018-08-20T04:19:19.722Z,94.70
2018-08-20T04:20:19.874Z,95.56
2018-08-20T04:21:20.026Z,95.46
2018-08-20T04:22:20.181Z,95.75
2018-08-20T04:23:20.333Z,95.17
2018-08-20T04:24:20.487Z,95.75
2018-08-20T04:25:20.640Z,96.22
2018-08-20T04:26:20.793Z,95.65
2018-08-20T04:27:20.949Z,95.56
2018-08-20T04:28:21.099Z,95.17
2018-08-20T04:29:21.255Z,94.79
2018-08-20T04:30:21.408Z,95.94
2018-08-20T04:31:21.562Z,95.36
2018-08-20T04:32:21.714Z,95.27
2018-08-20T04:33:21.872Z,95.46
2018-08-20T04:34:22.021Z,94.60
2018-08-20T04:35:22.175Z,95.75
2018-08-20T04:36:22.332Z,95.36
2018-08-20T04:37:22.483Z,94.79
2018-08-20T04:38:22.636Z,95.56
2018-08-20T04:39:22.790Z,95.17
2018-08-20T04:40:22.944Z,94.89
2018-08-20T04:41:23.096Z,94.89
2018-08-20T04:42:23.254Z,94.98
2018-08-20T04:43:23.404Z,94.70
2018-08-20T04:44:23.560Z,95.17
2018-08-20T04:45:23.711Z,95.46
2018-08-20T04:46:23.866Z,95.84
2018-08-20T04:47:24.022Z,95.84
2018-08-20T04:48:24.176Z,95.65
2018-08-20T04:49:24.328Z,95.46
2018-08-20T04:50:24.697Z,94.70
2018-08-20T04:51:24.751Z,94.79
2018-08-20T04:52:24.788Z,93.69
2018-08-20T04:53:24.944Z,93.21
2018-08-20T04:54:25.112Z,93.40
2018-08-20T04:55:25.250Z,93.12
2018-08-20T04:56:25.403Z,93.21
2018-08-20T04:57:25.556Z,93.12
2018-08-20T04:58:25.714Z,92.73
2018-08-20T04:59:25.866Z,93.21
2018-08-20T05:00:26.020Z,93.21
2018-08-20T05:01:26.170Z,93.30
2018-08-20T05:02:26.325Z,92.92
2018-08-20T05:03:26.478Z,93.79
2018-08-20T05:04:26.630Z,93.79
2018-08-20T05:05:26.787Z,92.73
2018-08-20T05:06:26.939Z,92.54
2018-08-20T05:07:27.093Z,92.92
2018-08-20T05:08:27.247Z,93.02
2018-08-20T05:09:27.403Z,92.49
2018-08-20T05:10:27.555Z,92.92
2018-08-20T05:11:27.707Z,93.12
2018-08-20T05:12:27.863Z,92.11
2018-08-20T05:13:28.016Z,92.30
2018-08-20T05:14:28.172Z,91.82
2018-08-20T05:15:28.323Z,90.96
2018-08-20T05:16:28.479Z,90.48
2018-08-20T05:17:28.645Z,90.19
2018-08-20T05:18:28.791Z,90.00
2018-08-20T05:19:28.947Z,90.48
2018-08-20T05:20:29.098Z,90.48
2018-08-20T05:21:29.249Z,90.77
2018-08-20T05:22:29.401Z,91.34
2018-08-20T05:23:29.557Z,90.96
2018-08-20T05:24:29.710Z,91.05
2018-08-20T05:25:29.863Z,89.90
2018-08-20T05:26:30.019Z,90.48
2018-08-20T05:27:30.178Z,90.29
2018-08-20T05:28:30.336Z,90.05
2018-08-20T05:29:30.523Z,89.47
2018-08-20T05:30:30.642Z,89.47
2018-08-20T05:31:30.795Z,89.66
2018-08-20T05:32:30.949Z,89.18
2018-08-20T05:33:31.106Z,89.47
2018-08-20T05:34:31.255Z,89.76
2018-08-20T05:35:31.411Z,90.05
2018-08-20T05:36:31.566Z,89.76
2018-08-20T05:37:31.730Z,90.43
2018-08-20T05:38:31.881Z,91.10
2018-08-20T05:39:32.037Z,90.05
2018-08-20T05:40:32.193Z,89.09
2018-08-20T05:41:32.346Z,88.75
2018-08-20T05:42:32.502Z,88.90
2018-08-20T05:43:32.657Z,89.66
2018-08-20T05:44:32.812Z,88.99
2018-08-20T05:45:32.966Z,88.65
2018-08-20T05:46:33.120Z,87.50
2018-08-20T05:47:33.273Z,86.83
2018-08-20T05:48:33.431Z,86.93
2018-08-20T05:49:33.583Z,87.70
2018-08-20T05:50:33.743Z,87.50
2018-08-20T05:51:33.899Z,87.21
2018-08-20T05:52:34.179Z,86.83
2018-08-20T05:53:34.214Z,86.93
2018-08-20T05:54:34.363Z,86.93
2018-08-20T05:55:34.518Z,86.88
2018-08-20T05:56:34.672Z,86.78
2018-08-20T05:57:34.827Z,86.97
2018-08-20T05:58:34.980Z,87.93
2018-08-20T05:59:35.137Z,88.31
2018-08-20T06:00:35.289Z,87.84
2018-08-20T06:01:35.446Z,86.78
2018-08-20T06:02:35.600Z,86.11
2018-08-20T06:03:35.755Z,86.11
2018-08-20T06:04:35.911Z,86.11
2018-08-20T06:05:36.065Z,85.53
2018-08-20T06:06:36.219Z,85.25
2018-08-20T06:07:36.375Z,85.48
2018-08-20T06:08:36.533Z,84.52
2018-08-20T06:09:36.687Z,83.27
2018-08-20T06:10:36.843Z,83.56
2018-08-20T06:11:36.998Z,83.56
2018-08-20T06:12:37.153Z,82.98
2018-08-20T06:13:37.306Z,82.70
2018-08-20T06:14:37.476Z,83.27
2018-08-20T06:15:37.618Z,82.79
2018-08-20T06:16:37.768Z,82.79
2018-08-20T06:17:37.925Z,82.84
2018-08-20T06:18:38.084Z,82.54
2018-08-20T06:19:38.238Z,82.16
2018-08-20T06:20:38.391Z,82.45
2018-08-20T06:21:38.548Z,82.97
2018-08-20T06:22:38.725Z,82.10
2018-08-20T06:23:38.856Z,81.63
2018-08-20T06:24:39.011Z,81.92
2018-08-20T06:25:39.165Z,81.30
2018-08-20T06:26:39.322Z,81.59
2018-08-20T06:27:39.476Z,81.97
2018-08-20T06:28:39.663Z,82.35
2018-08-20T06:29:39.789Z,82.30
2018-08-20T06:30:39.943Z,82.01
2018-08-20T06:31:40.096Z,82.49
2018-08-20T06:32:40.248Z,82.30
2018-08-20T06:33:40.405Z,82.40
2018-08-20T06:34:40.559Z,81.92
2018-08-20T06:35:40.767Z,81.63
2018-08-20T06:36:40.874Z,82.20
2018-08-20T06:37:41.025Z,82.10
2018-08-20T06:38:41.177Z,82.68
2018-08-20T06:39:41.335Z,82.64
2018-08-20T06:40:41.493Z,83.31
2018-08-20T06:41:41.710Z,82.93
2018-08-20T06:42:41.810Z,82.93
2018-08-20T06:43:41.954Z,82.74
2018-08-20T06:44:42.110Z,83.26
2018-08-20T06:45:42.264Z,82.84
2018-08-20T06:46:42.417Z,83.80
2018-08-20T06:47:42.572Z,83.07
2018-08-20T06:48:42.793Z,83.16
2018-08-20T06:49:42.885Z,83.26
2018-08-20T06:50:43.040Z,83.36
2018-08-20T06:51:43.192Z,83.26
2018-08-20T06:52:43.352Z,83.64
2018-08-20T06:53:43.506Z,83.45
2018-08-20T06:54:43.662Z,83.36
2018-08-20T06:55:43.817Z,83.64
2018-08-20T06:56:43.973Z,83.64
2018-08-20T06:57:44.129Z,83.36
2018-08-20T06:58:44.285Z,84.70
2018-08-20T06:59:44.447Z,83.49
2018-08-20T07:00:44.663Z,83.59
2018-08-20T07:01:44.752Z,82.68
2018-08-20T07:02:44.909Z,83.11
2018-08-20T07:03:45.063Z,82.73
2018-08-20T07:04:45.218Z,82.73
2018-08-20T07:05:45.376Z,82.34
2018-08-20T07:06:45.532Z,82.92
2018-08-20T07:07:45.689Z,82.19
2018-08-20T07:08:45.848Z,81.23
2018-08-20T07:09:46.002Z,82.09
2018-08-20T07:10:46.158Z,81.71
2018-08-20T07:11:46.321Z,81.04
2018-08-20T07:12:46.468Z,80.84
2018-08-20T07:13:46.629Z,80.65
2018-08-20T07:14:46.780Z,80.40
2018-08-20T07:15:46.940Z,79.92
2018-08-20T07:16:47.096Z,79.82
2018-08-20T07:17:47.251Z,80.40
2018-08-20T07:18:47.410Z,80.75
2018-08-20T07:19:47.565Z,80.79
2018-08-20T07:20:47.718Z,80.50
2018-08-20T07:21:47.875Z,79.92
2018-08-20T07:22:48.060Z,80.30
2018-08-20T07:23:48.203Z,81.07
2018-08-20T07:24:48.345Z,80.50
2018-08-20T07:25:48.502Z,79.58
2018-08-20T07:26:48.657Z,79.48
2018-08-20T07:27:48.812Z,79.10
2018-08-20T07:28:48.967Z,78.03
2018-08-20T07:29:49.124Z,78.61
2018-08-20T07:30:49.281Z,78.75
2018-08-20T07:31:49.439Z,78.65
2018-08-20T07:32:49.605Z,77.98
2018-08-20T07:33:49.751Z,77.88
2018-08-20T07:34:49.913Z,78.08
2018-08-20T07:35:50.066Z,78.46
2018-08-20T07:36:50.221Z,78.23
2018-08-20T07:37:50.380Z,78.27
2018-08-20T07:38:50.534Z,78.71
2018-08-20T07:39:50.690Z,78.33
2018-08-20T07:40:50.845Z,77.98
2018-08-20T07:41:51.004Z,77.40
2018-08-20T07:42:51.161Z,77.65
2018-08-20T07:43:51.314Z,77.78
2018-08-20T07:44:51.471Z,77.31
2018-08-20T07:45:51.630Z,77.11
2018-08-20T07:46:51.785Z,76.57
2018-08-20T07:47:51.942Z,75.99
2018-08-20T07:48:52.101Z,76.28
2018-08-20T07:49:52.258Z,75.90
2018-08-20T07:50:52.439Z,75.42
2018-08-20T07:51:52.570Z,75.32
2018-08-20T07:52:52.727Z,75.23
2018-08-20T07:53:52.883Z,75.16
2018-08-20T07:54:53.040Z,74.49
2018-08-20T07:55:53.197Z,74.01
2018-08-20T07:56:53.355Z,73.85
2018-08-20T07:57:53.512Z,73.47
2018-08-20T07:58:53.666Z,73.57
2018-08-20T07:59:53.825Z,73.18
2018-08-20T08:00:53.982Z,72.83
2018-08-20T08:01:54.137Z,72.63
2018-08-20T08:02:54.294Z,71.96
2018-08-20T08:03:54.452Z,72.54
2018-08-20T08:04:54.610Z,72.63
2018-08-20T08:05:54.772Z,72.63
2018-08-20T08:06:54.929Z,72.92
2018-08-20T08:07:55.086Z,73.02
2018-08-20T08:08:55.241Z,73.11
2018-08-20T08:09:55.398Z,72.92
2018-08-20T08:10:55.554Z,72.92
2018-08-20T08:11:55.714Z,72.92
2018-08-20T08:12:55.870Z,72.73
2018-08-20T08:13:56.029Z,72.73
2018-08-20T08:14:56.182Z,72.73
2018-08-20T08:15:56.339Z,73.31
2018-08-20T08:16:56.496Z,72.44
2018-08-20T08:17:56.655Z,73.21
2018-08-20T08:18:56.836Z,73.11
2018-08-20T08:19:56.974Z,72.58
2018-08-20T08:20:57.127Z,73.35
2018-08-20T08:21:57.287Z,72.86
2018-08-20T08:22:57.440Z,73.06
2018-08-20T08:23:57.597Z,72.86
2018-08-20T08:24:57.756Z,72.52
2018-08-20T08:25:57.912Z,72.48
2018-08-20T08:26:58.069Z,73.83
2018-08-20T08:27:58.225Z,74.02
2018-08-20T08:28:58.381Z,73.54
2018-08-20T08:29:58.540Z,74.12
2018-08-20T08:30:58.702Z,74.12
2018-08-20T08:31:58.858Z,74.02
2018-08-20T08:32:59.012Z,74.57
2018-08-20T08:33:59.170Z,74.76
2018-08-20T08:34:59.327Z,74.69
2018-08-20T08:35:59.485Z,74.41
2018-08-20T08:36:59.648Z,74.12
2018-08-20T08:37:59.839Z,74.02
2018-08-20T08:38:59.959Z,73.25
2018-08-20T08:40:00.119Z,73.09
2018-08-20T08:41:00.281Z,72.61
2018-08-20T08:42:00.435Z,72.61
2018-08-20T08:43:00.594Z,71.88
2018-08-20T08:44:00.751Z,71.88
2018-08-20T08:45:00.911Z,71.88
2018-08-20T08:46:01.069Z,72.06
2018-08-20T08:47:01.232Z,72.80
2018-08-20T08:48:01.382Z,73.38
2018-08-20T08:49:01.542Z,73.73
2018-08-20T08:50:01.700Z,74.02
2018-08-20T08:51:01.857Z,74.25
2018-08-20T08:52:02.014Z,74.21
2018-08-20T08:53:02.172Z,74.83
2018-08-20T08:54:02.328Z,75.27
2018-08-20T08:55:02.555Z,75.18
2018-08-20T08:56:02.645Z,74.73
2018-08-20T08:57:02.803Z,74.93
2018-08-20T08:58:02.959Z,74.25
2018-08-20T08:59:03.119Z,75.09
2018-08-20T09:00:03.275Z,75.27
2018-08-20T09:01:03.433Z,74.93
2018-08-20T09:02:03.590Z,74.69
2018-08-20T09:03:03.747Z,74.69
2018-08-20T09:04:03.906Z,74.99
2018-08-20T09:05:04.064Z,74.73
2018-08-20T09:06:04.222Z,74.25
2018-08-20T09:07:04.382Z,75.18
2018-08-20T09:08:04.540Z,75.47
2018-08-20T09:09:04.694Z,74.93
2018-08-20T09:10:04.853Z,75.02
2018-08-20T09:11:05.013Z,74.73
2018-08-20T09:12:05.171Z,74.35
2018-08-20T09:13:05.331Z,74.93
2018-08-20T09:14:05.488Z,74.54
2018-08-20T09:15:05.648Z,74.93
2018-08-20T09:16:05.802Z,73.96
2018-08-20T09:17:05.961Z,73.77
2018-08-20T09:18:06.118Z,73.22
2018-08-20T09:19:06.278Z,72.94
2018-08-20T09:20:06.433Z,72.74
2018-08-20T09:21:06.591Z,71.81
2018-08-20T09:22:06.750Z,72.74
2018-08-20T09:23:06.905Z,73.07
2018-08-20T09:24:07.065Z,71.91
2018-08-20T09:25:07.221Z,72.10
2018-08-20T09:26:07.378Z,71.52
2018-08-20T09:27:07.535Z,71.56
2018-08-20T09:28:07.691Z,71.62
2018-08-20T09:29:07.851Z,71.62
2018-08-20T09:30:08.010Z,71.42
2018-08-20T09:31:08.200Z,70.98
2018-08-20T09:32:08.410Z,71.84
2018-08-20T09:33:08.517Z,70.88
2018-08-20T09:34:08.677Z,70.30
2018-08-20T09:35:08.837Z,70.98
2018-08-20T09:36:08.996Z,70.98
2018-08-20T09:37:09.153Z,71.36
2018-08-20T09:38:09.351Z,71.08
2018-08-20T09:39:09.470Z,70.82
2018-08-20T09:40:09.626Z,70.59
2018-08-20T09:41:09.784Z,70.78
2018-08-20T09:42:09.942Z,70.59
2018-08-20T09:43:10.105Z,70.62
2018-08-20T09:44:10.261Z,69.85
2018-08-20T09:45:10.420Z,69.85
2018-08-20T09:46:10.580Z,69.17
2018-08-20T09:47:10.739Z,69.46
2018-08-20T09:48:10.897Z,69.40
2018-08-20T09:49:11.056Z,69.21
2018-08-20T09:50:11.219Z,68.91
2018-08-20T09:51:11.373Z,69.31
2018-08-20T09:52:11.535Z,69.46
2018-08-20T09:53:11.730Z,69.50
2018-08-20T09:54:11.855Z,69.08
2018-08-20T09:55:12.014Z,69.66
2018-08-20T09:56:12.171Z,69.66
2018-08-20T09:57:12.337Z,68.82
2018-08-20T09:58:12.490Z,68.66
2018-08-20T09:59:12.706Z,67.11
2018-08-20T10:00:12.809Z,66.53
2018-08-20T10:01:12.969Z,66.53
2018-08-20T10:02:13.126Z,66.66
2018-08-20T10:03:13.284Z,65.75
2018-08-20T10:04:13.447Z,66.95
2018-08-20T10:05:13.606Z,65.98
2018-08-20T10:06:13.765Z,66.72
2018-08-20T10:07:13.925Z,66.63
2018-08-20T10:08:14.087Z,65.69
2018-08-20T10:09:14.273Z,65.30
2018-08-20T10:10:14.402Z,65.01
2018-08-20T10:11:14.565Z,64.62
2018-08-20T10:12:14.725Z,65.20
2018-08-20T10:13:14.884Z,65.20
2018-08-20T10:14:15.046Z,65.11
2018-08-20T10:15:15.205Z,65.20
2018-08-20T10:16:15.365Z,65.01
2018-08-20T10:17:15.529Z,65.59
2018-08-20T10:18:15.688Z,65.43
2018-08-20T10:19:15.847Z,64.65
2018-08-20T10:20:16.005Z,64.53
2018-08-20T10:21:16.165Z,64.75
2018-08-20T10:22:16.368Z,64.37
2018-08-20T10:23:16.485Z,63.69
2018-08-20T10:24:16.644Z,63.40
2018-08-20T10:25:16.812Z,63.13
2018-08-20T10:26:16.966Z,62.55
2018-08-20T10:27:17.128Z,62.36
2018-08-20T10:28:17.287Z,61.81
2018-08-20T10:29:17.450Z,61.13
2018-08-20T10:30:17.608Z,61.04
2018-08-20T10:31:17.764Z,62.59
2018-08-20T10:32:17.926Z,61.91
2018-08-20T10:33:18.088Z,62.29
2018-08-20T10:34:18.249Z,61.61
2018-08-20T10:35:18.411Z,61.04
2018-08-20T10:36:18.571Z,61.46
2018-08-20T10:37:18.731Z,62.82
2018-08-20T10:38:18.893Z,62.82
2018-08-20T10:39:19.050Z,64.53
2018-08-20T10:40:19.212Z,64.56
2018-08-20T10:41:19.373Z,64.07
2018-08-20T10:42:19.536Z,63.88
2018-08-20T10:43:19.694Z,63.59
2018-08-20T10:44:19.855Z,63.01
2018-08-20T10:45:20.015Z,63.30
2018-08-20T10:46:20.176Z,63.13
2018-08-20T10:47:20.337Z,62.16
2018-08-20T10:48:20.498Z,62.55
2018-08-20T10:49:20.662Z,61.88
2018-08-20T10:50:20.819Z,61.04
2018-08-20T10:51:20.982Z,61.42
2018-08-20T10:52:21.139Z,60.28
2018-08-20T10:53:21.302Z,60.19
2018-08-20T10:54:21.464Z,60.64
2018-08-20T10:55:21.623Z,60.64
2018-08-20T10:56:21.832Z,61.29
2018-08-20T10:57:21.946Z,61.49
2018-08-20T10:58:22.105Z,61.10
2018-08-20T10:59:22.268Z,61.49
2018-08-20T11:00:22.425Z,61.58
2018-08-20T11:01:22.588Z,61.52
2018-08-20T11:02:22.747Z,61.04
2018-08-20T11:03:22.911Z,61.49
2018-08-20T11:04:23.070Z,61.32
2018-08-20T11:05:23.230Z,60.81
2018-08-20T11:06:23.392Z,61.49
2018-08-20T11:07:23.554Z,60.84
2018-08-20T11:08:23.714Z,60.35
2018-08-20T11:09:23.877Z,60.64
2018-08-20T11:10:24.034Z,60.64
2018-08-20T11:11:24.184Z,60.64
2018-08-20T11:12:24.363Z,60.16
2018-08-20T11:13:24.523Z,60.25
2018-08-20T11:14:24.688Z,60.64
2018-08-20T11:15:24.845Z,59.87
2018-08-20T11:16:25.008Z,59.51
2018-08-20T11:17:25.167Z,59.34
2018-08-20T11:18:25.356Z,58.18
2018-08-20T11:19:25.487Z,57.31
2018-08-20T11:20:25.649Z,58.59
2018-08-20T11:21:25.808Z,58.08
2018-08-20T11:22:25.970Z,58.73
2018-08-20T11:23:26.129Z,58.73
2018-08-20T11:24:26.292Z,57.98
2018-08-20T11:25:26.452Z,57.53
2018-08-20T11:26:26.613Z,56.46
2018-08-20T11:27:26.813Z,56.00
2018-08-20T11:28:26.942Z,55.15
2018-08-20T11:29:27.105Z,54.57
2018-08-20T11:30:27.274Z,54.28
2018-08-20T11:31:27.424Z,55.22
2018-08-20T11:32:27.591Z,56.16
2018-08-20T11:33:27.749Z,56.26
2018-08-20T11:34:27.912Z,57.50
2018-08-20T11:35:28.073Z,58.31
2018-08-20T11:36:28.238Z,57.43
2018-08-20T11:37:28.397Z,56.95
2018-08-20T11:38:28.564Z,56.39
2018-08-20T11:39:28.722Z,55.39
2018-08-20T11:40:28.882Z,57.28
2018-08-20T11:41:29.044Z,57.21
2018-08-20T11:42:29.208Z,57.89
2018-08-20T11:43:29.373Z,58.73
2018-08-20T11:44:29.536Z,58.64
2018-08-20T11:45:29.695Z,58.44
2018-08-20T11:46:29.854Z,59.22
2018-08-20T11:47:30.014Z,59.58
2018-08-20T11:48:30.176Z,58.64
2018-08-20T11:49:30.336Z,59.31
2018-08-20T11:50:30.503Z,59.12
2018-08-20T11:51:30.659Z,59.70
2018-08-20T11:52:30.820Z,58.44
2018-08-20T11:53:30.987Z,58.44
2018-08-20T11:54:31.149Z,59.70
2018-08-20T11:55:31.307Z,58.64
2018-08-20T11:56:31.467Z,58.51
2018-08-20T11:57:31.628Z,58.61
2018-08-20T11:58:31.789Z,58.61
2018-08-20T11:59:31.950Z,58.80
2018-08-20T12:00:32.113Z,59.00
2018-08-20T12:01:32.274Z,60.16
2018-08-20T12:02:32.436Z,59.87
2018-08-20T12:03:32.599Z,59.87
2018-08-20T12:04:32.760Z,60.94
2018-08-20T12:05:32.920Z,60.55
2018-08-20T12:06:33.081Z,59.48
2018-08-20T12:07:33.267Z,59.67
2018-08-20T12:08:33.409Z,59.38
2018-08-20T12:09:33.569Z,59.38
2018-08-20T12:10:33.731Z,58.51
2018-08-20T12:11:33.895Z,58.70
2018-08-20T12:12:34.054Z,59.00
2018-08-20T12:13:34.225Z,59.58
2018-08-20T12:14:34.379Z,59.38
2018-08-20T12:15:34.539Z,59.09
2018-08-20T12:16:34.701Z,59.48
2018-08-20T12:17:34.860Z,59.19
2018-08-20T12:18:35.024Z,59.94
2018-08-20T12:19:35.186Z,60.20
2018-08-20T12:20:35.345Z,60.42
2018-08-20T12:21:35.505Z,59.84
2018-08-20T12:22:35.707Z,59.45
2018-08-20T12:23:35.824Z,59.94
2018-08-20T12:24:35.981Z,59.84
2018-08-20T12:25:36.145Z,60.03
2018-08-20T12:26:36.304Z,60.03
2018-08-20T12:27:36.466Z,60.03
2018-08-20T12:28:36.631Z,60.03
2018-08-20T12:29:36.793Z,61.26
2018-08-20T12:30:36.954Z,60.78
2018-08-20T12:31:37.114Z,61.00
2018-08-20T12:32:37.275Z,60.78
2018-08-20T12:33:37.436Z,61.26
2018-08-20T12:34:37.596Z,60.81
2018-08-20T12:35:37.756Z,61.26
2018-08-20T12:36:37.915Z,61.07
2018-08-20T12:37:38.082Z,60.97
2018-08-20T12:38:38.280Z,61.36
2018-08-20T12:39:38.431Z,60.52
2018-08-20T12:40:38.638Z,60.61
2018-08-20T12:41:38.718Z,60.13
2018-08-20T12:42:38.878Z,59.87
2018-08-20T12:43:39.035Z,60.06
2018-08-20T12:44:39.193Z,59.94
2018-08-20T12:45:39.354Z,59.67
2018-08-20T12:46:39.519Z,60.16
2018-08-20T12:47:39.678Z,59.38
2018-08-20T12:48:39.844Z,59.38
2018-08-20T12:49:40.003Z,58.73
2018-08-20T12:50:40.165Z,58.83
2018-08-20T12:51:40.324Z,58.83
2018-08-20T12:52:40.485Z,58.64
2018-08-20T12:53:40.648Z,58.57
2018-08-20T12:54:40.809Z,58.34